Time;durP1;ratioP1;P1;durP2;ratioP2;P2;SDS_P1;SDS_P2;PMS_P1;PMS_P2;Temp;Humidity;BMP_temperature;BMP_pressure;BME280_temperature;BME280_humidity;BME280_pressure;Samples;Min_cycle;Max_cycle;Signal;HPM_P1;HPM_P2
2022/06/09 00:01:30;;;;;;;5.88;5.28;;;;;;;;;;5113706;28;20034;-87
2022/06/09 00:04:09;;;;;;;8.93;6.55;;;;;;;;;;5114853;28;20403;-86
2022/06/09 00:06:46;;;;;;;7.05;6.28;;;;;;;;;;5114471;28;20100;-82
2022/06/09 00:09:12;;;;;;;6.50;5.80;;;;;;;;;;5114378;28;20034;-81
2022/06/09 00:11:41;;;;;;;9.65;5.75;;;;;;;;;;5114430;28;20386;-85
2022/06/09 00:14:08;;;;;;;7.63;6.32;;;;;;;;;;5114507;28;20063;-85
2022/06/09 00:16:35;;;;;;;7.72;5.90;;;;;;;;;;5114184;28;20065;-84
2022/06/09 00:19:01;;;;;;;6.45;5.85;;;;;;;;;;5112825;28;20030;-82
2022/06/09 00:21:27;;;;;;;6.93;6.25;;;;;;;;;;5112651;28;20077;-82
2022/06/09 00:23:53;;;;;;;7.82;5.68;;;;;;;;;;5113840;28;20028;-83
2022/06/09 00:26:19;;;;;;;7.00;6.30;;;;;;;;;;5113948;27;20051;-83
2022/06/09 00:28:48;;;;;;;6.82;5.55;;;;;;;;;;5112799;28;20035;-87
2022/06/09 00:31:14;;;;;;;6.30;5.70;;;;;;;;;;5112662;28;20080;-81
2022/06/09 00:33:40;;;;;;;5.88;5.18;;;;;;;;;;5112591;28;20073;-85
2022/06/09 00:36:06;;;;;;;6.40;4.88;;;;;;;;;;5113651;28;20478;-82
2022/06/09 00:38:35;;;;;;;5.18;4.68;;;;;;;;;;5113733;28;20028;-81
2022/06/09 00:41:02;;;;;;;5.68;5.07;;;;;;;;;;5113682;28;20048;-83
2022/06/09 00:43:28;;;;;;;8.00;5.63;;;;;;;;;;5113329;28;20055;-86
2022/06/09 00:46:00;;;;;;;6.07;5.25;;;;;;;;;;5113504;28;20027;-83
2022/06/09 00:48:39;;;;;;;5.78;4.60;;;;;;;;;;5113741;28;20455;-82
2022/06/09 00:51:17;;;;;;;6.70;4.68;;;;;;;;;;5113377;28;20023;-81
2022/06/09 00:53:44;;;;;;;6.35;5.68;;;;;;;;;;5112182;28;20516;-82
2022/06/09 00:56:19;;;;;;;6.00;5.40;;;;;;;;;;5113869;28;20508;-82
2022/06/09 00:58:47;;;;;;;12.13;5.90;;;;;;;;;;5112214;28;20031;-83
2022/06/09 01:01:15;;;;;;;6.57;5.60;;;;;;;;;;5112234;28;20027;-85
2022/06/09 01:03:50;;;;;;;7.35;4.97;;;;;;;;;;5113306;28;20466;-82
2022/06/09 01:06:18;;;;;;;6.20;5.60;;;;;;;;;;5113323;28;20027;-85
2022/06/09 01:09:01;;;;;;;5.93;5.20;;;;;;;;;;5111642;28;20111;-81
2022/06/09 01:11:29;;;;;;;8.25;5.50;;;;;;;;;;5113290;28;20020;-82
2022/06/09 01:13:57;;;;;;;5.70;5.15;;;;;;;;;;5113129;28;20466;-82
2022/06/09 01:16:35;;;;;;;5.60;5.10;;;;;;;;;;5113433;28;20024;-86
2022/06/09 01:19:17;;;;;;;6.32;5.68;;;;;;;;;;5112751;28;20027;-89
2022/06/09 01:22:05;;;;;;;5.95;5.35;;;;;;;;;;5113071;28;20028;-84
2022/06/09 01:24:31;;;;;;;9.13;5.53;;;;;;;;;;5111852;28;20461;-83
2022/06/09 01:27:02;;;;;;;8.40;5.88;;;;;;;;;;5111971;28;20081;-86
2022/06/09 01:29:55;;;;;;;7.03;6.00;;;;;;;;;;5113105;28;20099;-81
2022/06/09 01:32:39;;;;;;;6.35;5.70;;;;;;;;;;5111750;28;20051;-83
2022/06/09 01:35:24;;;;;;;6.97;5.38;;;;;;;;;;5111581;28;20023;-86
2022/06/09 01:37:54;;;;;;;6.22;5.60;;;;;;;;;;5112999;28;20031;-85
2022/06/09 01:40:20;;;;;;;9.75;6.78;;;;;;;;;;5112857;28;20107;-83
2022/06/09 01:42:48;;;;;;;7.25;6.55;;;;;;;;;;5112794;28;20127;-86
2022/06/09 01:45:23;;;;;;;7.90;6.60;;;;;;;;;;5113089;28;20024;-84
2022/06/09 01:48:03;;;;;;;9.95;7.10;;;;;;;;;;5112915;28;20058;-82
2022/06/09 01:50:36;;;;;;;6.45;5.85;;;;;;;;;;5111981;28;20084;-85
2022/06/09 01:53:08;;;;;;;6.95;5.15;;;;;;;;;;5111138;28;20036;-83
2022/06/09 01:55:41;;;;;;;6.65;5.72;;;;;;;;;;5111703;28;20024;-83
2022/06/09 01:58:13;;;;;;;6.60;5.63;;;;;;;;;;5112696;28;20031;-83
2022/06/09 02:00:39;;;;;;;6.40;5.30;;;;;;;;;;5111571;28;20027;-83
2022/06/09 02:03:11;;;;;;;7.78;6.13;;;;;;;;;;5111711;28;20027;-82
2022/06/09 02:05:40;;;;;;;8.98;5.97;;;;;;;;;;5112683;28;20024;-85
2022/06/09 02:08:29;;;;;;;7.80;5.78;;;;;;;;;;5111489;28;20039;-85
2022/06/09 02:11:07;;;;;;;7.50;5.70;;;;;;;;;;5111597;28;20031;-85
2022/06/09 02:13:39;;;;;;;8.15;6.38;;;;;;;;;;5112776;28;20038;-84
2022/06/09 02:16:09;;;;;;;7.25;6.53;;;;;;;;;;5111226;28;20055;-82
2022/06/09 02:18:47;;;;;;;8.55;6.18;;;;;;;;;;5112773;28;20478;-82
2022/06/09 02:21:25;;;;;;;7.53;6.45;;;;;;;;;;5115377;28;20024;-85
2022/06/09 02:23:52;;;;;;;9.23;5.97;;;;;;;;;;5116463;27;20035;-85
2022/06/09 02:26:18;;;;;;;8.75;6.70;;;;;;;;;;5116679;28;20038;-84
2022/06/09 02:28:44;;;;;;;14.98;13.15;;;;;;;;;;5116285;28;20042;-82
2022/06/09 02:31:10;;;;;;;17.75;13.75;;;;;;;;;;5116516;28;20023;-83
2022/06/09 02:33:37;;;;;;;10.82;9.65;;;;;;;;;;5116203;28;20115;-85
2022/06/09 02:36:03;;;;;;;23.38;20.38;;;;;;;;;;5116190;28;20023;-82
2022/06/09 02:38:29;;;;;;;6.30;5.70;;;;;;;;;;5116124;28;20031;-84
2022/06/09 02:40:55;;;;;;;18.40;15.23;;;;;;;;;;5114602;28;20055;-85
2022/06/09 02:43:23;;;;;;;13.32;9.68;;;;;;;;;;5115713;28;20055;-84
2022/06/09 02:45:50;;;;;;;10.38;8.68;;;;;;;;;;5116133;28;20028;-80
2022/06/09 02:48:16;;;;;;;6.68;5.45;;;;;;;;;;5116332;28;20034;-85
2022/06/09 02:50:43;;;;;;;5.40;4.90;;;;;;;;;;5115833;28;20526;-82
2022/06/09 02:53:09;;;;;;;21.98;18.92;;;;;;;;;;5115875;28;20050;-83
2022/06/09 02:55:38;;;;;;;7.80;5.95;;;;;;;;;;5114661;28;20028;-81
2022/06/09 02:58:04;;;;;;;10.00;9.00;;;;;;;;;;5115718;28;20027;-83
2022/06/09 03:00:30;;;;;;;6.30;5.40;;;;;;;;;;5115808;28;20059;-86
2022/06/09 03:03:06;;;;;;;6.72;6.00;;;;;;;;;;5115590;28;20020;-86
2022/06/09 03:05:35;;;;;;;6.40;5.38;;;;;;;;;;5115286;28;20019;-83
2022/06/09 03:08:01;;;;;;;7.28;5.78;;;;;;;;;;5115734;28;20119;-82
2022/06/09 03:10:30;;;;;;;5.82;5.10;;;;;;;;;;5115144;28;20526;-81
2022/06/09 03:12:56;;;;;;;6.45;5.47;;;;;;;;;;5115637;28;20067;-80
2022/06/09 03:15:26;;;;;;;8.70;6.03;;;;;;;;;;5115427;28;20019;-82
2022/06/09 03:17:52;;;;;;;8.88;6.28;;;;;;;;;;5115525;28;20028;-81
2022/06/09 03:20:21;;;;;;;9.65;5.45;;;;;;;;;;5114022;28;20051;-83
2022/06/09 03:22:47;;;;;;;6.65;5.90;;;;;;;;;;5115163;28;20027;-84
2022/06/09 03:25:14;;;;;;;10.65;6.53;;;;;;;;;;5115166;28;20414;-82
2022/06/09 03:27:40;;;;;;;11.20;5.40;;;;;;;;;;5115348;28;20458;-85
2022/06/09 03:30:06;;;;;;;15.57;6.72;;;;;;;;;;5113921;28;20477;-83
2022/06/09 03:32:32;;;;;;;12.65;10.80;;;;;;;;;;5114806;28;20028;-82
2022/06/09 03:34:59;;;;;;;11.80;8.90;;;;;;;;;;5115193;28;20061;-80
2022/06/09 03:37:25;;;;;;;9.60;5.40;;;;;;;;;;5114737;28;20031;-81
2022/06/09 03:39:51;;;;;;;11.07;6.47;;;;;;;;;;5114904;28;20035;-87
2022/06/09 03:42:17;;;;;;;6.55;5.53;;;;;;;;;;5114682;28;20398;-82
2022/06/09 03:44:43;;;;;;;9.57;6.03;;;;;;;;;;5114819;28;20073;-85
2022/06/09 03:47:10;;;;;;;14.45;11.93;;;;;;;;;;5114967;28;20512;-85
2022/06/09 03:49:37;;;;;;;9.35;6.88;;;;;;;;;;5114673;28;20069;-84
2022/06/09 03:52:03;;;;;;;13.18;6.28;;;;;;;;;;5113284;28;20065;-86
2022/06/09 03:54:29;;;;;;;15.52;6.93;;;;;;;;;;5113159;28;20038;-82
2022/06/09 03:56:58;;;;;;;8.93;5.93;;;;;;;;;;5114764;28;20136;-82
2022/06/09 03:59:24;;;;;;;9.75;5.80;;;;;;;;;;5114103;28;20034;-84
2022/06/09 04:01:50;;;;;;;10.68;6.50;;;;;;;;;;5114581;28;20062;-81
2022/06/09 04:04:16;;;;;;;9.80;6.97;;;;;;;;;;5112235;28;20034;-80
2022/06/09 04:06:42;;;;;;;12.07;10.88;;;;;;;;;;5114109;28;20028;-81
2022/06/09 04:09:08;;;;;;;6.28;5.18;;;;;;;;;;5114253;28;20028;-80
2022/06/09 04:11:34;;;;;;;9.48;7.32;;;;;;;;;;5114062;28;20054;-81
2022/06/09 04:14:01;;;;;;;16.55;8.18;;;;;;;;;;5112933;28;20087;-79
2022/06/09 04:16:35;;;;;;;6.82;5.38;;;;;;;;;;5113935;28;20027;-79
2022/06/09 04:19:01;;;;;;;;;;;;;;;;;;5114454;28;20037;-81
2022/06/09 04:21:28;;;;;;;8.25;6.90;;;;;;;;;;5112742;28;20392;-81
2022/06/09 04:23:55;;;;;;;7.05;6.13;;;;;;;;;;5114090;28;20027;-84
2022/06/09 04:26:23;;;;;;;8.13;4.90;;;;;;;;;;5113819;28;20051;-81
2022/06/09 04:28:49;;;;;;;7.90;5.40;;;;;;;;;;5113794;28;20497;-83
2022/06/09 04:31:16;;;;;;;6.97;6.28;;;;;;;;;;5113630;28;20035;-83
2022/06/09 04:33:42;;;;;;;5.85;5.10;;;;;;;;;;5113370;28;20106;-82
2022/06/09 04:36:16;;;;;;;11.73;8.13;;;;;;;;;;5113748;28;20144;-84
2022/06/09 04:38:42;;;;;;;9.52;6.15;;;;;;;;;;5113666;28;20027;-82
2022/06/09 04:41:09;;;;;;;6.30;5.70;;;;;;;;;;5113475;27;20089;-82
2022/06/09 04:43:37;;;;;;;10.38;6.00;;;;;;;;;;5111534;28;20055;-81
2022/06/09 04:46:04;;;;;;;5.55;4.80;;;;;;;;;;5113615;28;20382;-81
2022/06/09 04:48:30;;;;;;;8.05;7.18;;;;;;;;;;5111953;28;20428;-84
2022/06/09 04:50:56;;;;;;;5.88;4.82;;;;;;;;;;5113550;28;20029;-86
2022/06/09 04:53:23;;;;;;;8.10;5.75;;;;;;;;;;5113154;28;20478;-80
2022/06/09 04:55:49;;;;;;;8.48;5.97;;;;;;;;;;5112050;28;20029;-85
2022/06/09 04:58:15;;;;;;;5.82;5.05;;;;;;;;;;5095210;28;20063;-83
2022/06/09 05:00:42;;;;;;;7.50;5.50;;;;;;;;;;5113168;28;20102;-86
2022/06/09 05:03:11;;;;;;;5.95;4.72;;;;;;;;;;5113276;28;20470;-81
2022/06/09 05:05:38;;;;;;;6.10;5.50;;;;;;;;;;5112977;28;20020;-83
2022/06/09 05:08:12;;;;;;;6.50;5.90;;;;;;;;;;5111868;28;20489;-83
2022/06/09 05:10:39;;;;;;;7.57;5.85;;;;;;;;;;5112991;28;20027;-84
2022/06/09 05:13:08;;;;;;;8.75;6.57;;;;;;;;;;5112486;28;20039;-80
2022/06/09 05:15:38;;;;;;;6.20;5.60;;;;;;;;;;5112931;28;20023;-87
2022/06/09 05:18:05;;;;;;;6.38;5.75;;;;;;;;;;5113031;28;20031;-84
2022/06/09 05:20:31;;;;;;;8.25;6.45;;;;;;;;;;5113177;28;20378;-82
2022/06/09 05:22:58;;;;;;;6.30;5.03;;;;;;;;;;5112762;28;20020;-83
2022/06/09 05:25:24;;;;;;;6.32;5.70;;;;;;;;;;5112426;28;20117;-88
2022/06/09 05:27:53;;;;;;;7.03;5.93;;;;;;;;;;5111438;28;20072;-83
2022/06/09 05:30:21;;;;;;;7.03;6.43;;;;;;;;;;5110798;28;20119;-84
2022/06/09 05:33:06;;;;;;;;;;;;;;;;;;;;;
2022/06/09 05:50:19;;;;;;;11.65;9.02;;;;;;;;;;5073859;28;20087;-89
2022/06/09 05:53:08;;;;;;;10.43;8.18;;;;;;;;;;5109329;28;20036;-86
2022/06/09 05:55:37;;;;;;;12.57;11.27;;;;;;;;;;5096292;28;20036;-91
2022/06/09 05:58:03;;;;;;;12.18;11.00;;;;;;;;;;5112347;28;20042;-86
2022/06/09 06:00:29;;;;;;;10.45;7.47;;;;;;;;;;5114788;28;20039;-88
2022/06/09 06:02:57;;;;;;;11.00;9.30;;;;;;;;;;5115062;27;20023;-87
2022/06/09 06:11:48;;;;;;;12.60;7.60;;;;;;;;;;5032940;28;20554;-86
2022/06/09 06:17:07;;;;;;;17.48;8.43;;;;;;;;;;5075323;28;20032;-88
2022/06/09 06:19:33;;;;;;;16.25;8.20;;;;;;;;;;5094205;28;20061;-85
2022/06/09 06:25:06;;;;;;;13.57;9.35;;;;;;;;;;5096643;28;20038;-82
2022/06/09 06:27:35;;;;;;;14.70;10.45;;;;;;;;;;5111331;28;20016;-86
2022/06/09 06:36:32;;;;;;;;;;;;;;;;;;;;;
2022/06/09 06:38:59;;;;;;;12.20;9.93;;;;;;;;;;5115255;28;20034;-83
2022/06/09 06:47:41;;;;;;;6.38;5.25;;;;;;;;;;5070088;28;20049;-86
2022/06/09 06:50:08;;;;;;;10.43;7.53;;;;;;;;;;5115377;28;20032;-87
2022/06/09 06:52:34;;;;;;;16.80;11.48;;;;;;;;;;5112222;28;20106;-84
2022/06/09 06:55:21;;;;;;;12.35;6.53;;;;;;;;;;5115429;28;20078;-87
2022/06/09 06:57:50;;;;;;;10.98;5.75;;;;;;;;;;5114967;28;20436;-88
2022/06/09 07:00:37;;;;;;;8.23;4.82;;;;;;;;;;5113776;28;20024;-88
2022/06/09 07:06:05;;;;;;;8.43;5.40;;;;;;;;;;5091907;28;20067;-85
2022/06/09 07:15:19;;;;;;;8.57;6.68;;;;;;;;;;5072686;27;20043;-85
2022/06/09 07:21:15;;;;;;;19.75;9.82;;;;;;;;;;5068098;28;20032;-88
2022/06/09 07:23:41;;;;;;;8.38;7.43;;;;;;;;;;5114690;28;20084;-81
2022/06/09 07:26:07;;;;;;;16.17;9.43;;;;;;;;;;5111604;28;20108;-82
2022/06/09 07:28:33;;;;;;;9.02;7.70;;;;;;;;;;5114733;28;20038;-81
2022/06/09 07:31:07;;;;;;;12.45;9.60;;;;;;;;;;5114074;28;20038;-85
2022/06/09 07:33:52;;;;;;;108.22;38.65;;;;;;;;;;5110801;27;20043;-87
2022/06/09 07:39:06;;;;;;;62.63;23.38;;;;;;;;;;5068029;28;20132;-84
2022/06/09 07:47:48;;;;;;;110.78;33.97;;;;;;;;;;5031957;28;20083;-87
2022/06/09 07:50:22;;;;;;;51.00;19.70;;;;;;;;;;5053718;28;20568;-87
2022/06/09 07:55:55;;;;;;;8.38;5.72;;;;;;;;;;5025975;28;20060;-87
2022/06/09 08:01:56;;;;;;;14.88;10.25;;;;;;;;;;4972871;28;20034;-86
2022/06/09 08:07:18;;;;;;;5.45;3.90;;;;;;;;;;5003392;28;20095;-86
2022/06/09 08:09:45;;;;;;;8.45;5.18;;;;;;;;;;5068265;28;20558;-85
2022/06/09 08:12:50;;;;;;;6.05;4.25;;;;;;;;;;5094210;28;20032;-84
2022/06/09 08:15:25;;;;;;;5.28;4.13;;;;;;;;;;5113380;28;20039;-84
2022/06/09 08:17:57;;;;;;;5.88;4.15;;;;;;;;;;5112837;28;20046;-86
2022/06/09 08:20:27;;;;;;;8.70;5.35;;;;;;;;;;5113516;28;20030;-83
2022/06/09 08:23:04;;;;;;;7.88;5.22;;;;;;;;;;5113461;28;20490;-87
2022/06/09 08:25:30;;;;;;;5.68;4.95;;;;;;;;;;5111958;28;20040;-85
2022/06/09 08:31:19;;;;;;;12.50;7.75;;;;;;;;;;5079414;28;20595;-83
2022/06/09 08:33:46;;;;;;;8.88;6.57;;;;;;;;;;5099040;28;20160;-87
2022/06/09 08:36:12;;;;;;;9.68;6.07;;;;;;;;;;5094979;28;20028;-85
2022/06/09 08:38:38;;;;;;;10.82;7.97;;;;;;;;;;5106202;28;20378;-85
2022/06/09 08:41:13;;;;;;;10.00;9.10;;;;;;;;;;5106832;28;20050;-87
2022/06/09 08:43:57;;;;;;;6.60;5.30;;;;;;;;;;5108955;28;20047;-85
2022/06/09 08:52:36;;;;;;;11.05;4.78;;;;;;;;;;5072472;28;20111;-87
2022/06/09 08:55:22;;;;;;;7.05;4.97;;;;;;;;;;5093741;28;20066;-86
2022/06/09 08:57:51;;;;;;;5.75;4.15;;;;;;;;;;5105116;28;20080;-83
2022/06/09 09:00:22;;;;;;;15.82;14.15;;;;;;;;;;5109968;28;20036;-85
2022/06/09 09:02:53;;;;;;;7.95;7.15;;;;;;;;;;5092343;28;20439;-87
2022/06/09 09:06:10;;;;;;;;;;;;;;;;;;;;;
2022/06/09 09:09:25;;;;;;;5.97;5.30;;;;;;;;;;5107959;28;20465;-88
2022/06/09 09:11:53;;;;;;;6.15;4.75;;;;;;;;;;5105161;28;20031;-87
2022/06/09 09:14:56;;;;;;;5.45;4.95;;;;;;;;;;5107919;28;20043;-86
2022/06/09 09:17:50;;;;;;;;;;;;;;;;;;;;;
2022/06/09 09:20:26;;;;;;;6.45;4.72;;;;;;;;;;5104970;28;20377;-86
2022/06/09 09:23:33;;;;;;;11.27;10.07;;;;;;;;;;5107940;28;20491;-84
2022/06/09 09:26:18;;;;;;;;;;;;;;;;;;5107349;28;20375;-86
2022/06/09 09:29:09;;;;;;;6.85;6.18;;;;;;;;;;5108080;28;19915;-84
2022/06/09 09:32:01;;;;;;;5.28;4.55;;;;;;;;;;5099581;28;20039;-86
2022/06/09 09:34:44;;;;;;;;;;;;;;;;;;;;;
2022/06/09 09:37:34;;;;;;;4.88;4.47;;;;;;;;;;5112299;28;20027;-88
2022/06/09 09:46:07;;;;;;;;;;;;;;;;;;4987604;28;20042;-86
2022/06/09 09:48:57;;;;;;;4.75;4.35;;;;;;;;;;5080741;28;20358;-86
2022/06/09 09:51:53;;;;;;;5.50;4.72;;;;;;;;;;5068758;28;20125;-85
2022/06/09 09:54:30;;;;;;;5.43;4.93;;;;;;;;;;5063660;28;20032;-87
2022/06/09 09:57:14;;;;;;;6.40;5.50;;;;;;;;;;5103618;28;20507;-85
2022/06/09 09:59:54;;;;;;;5.90;5.40;;;;;;;;;;5108577;28;20028;-84
2022/06/09 10:14:19;;;;;;;6.15;4.22;;;;;;;;;;5112383;28;20553;-74
2022/06/09 10:16:49;;;;;;;5.25;3.78;;;;;;;;;;5112401;28;20055;-83
2022/06/09 10:22:18;;;;;;;4.85;4.30;;;;;;;;;;5111357;28;20028;-82
2022/06/09 10:24:48;;;;;;;5.97;4.35;;;;;;;;;;5098721;28;20032;-82
2022/06/09 10:27:16;;;;;;;5.55;4.53;;;;;;;;;;5110772;28;20039;-83
2022/06/09 10:29:45;;;;;;;4.10;3.78;;;;;;;;;;5105001;28;20039;-80
2022/06/09 10:32:16;;;;;;;6.05;4.03;;;;;;;;;;5097810;28;20050;-82
2022/06/09 10:34:59;;;;;;;4.05;3.63;;;;;;;;;;5095775;28;20043;-80
2022/06/09 10:37:33;;;;;;;4.32;3.80;;;;;;;;;;5093546;28;20051;-82
2022/06/09 10:40:04;;;;;;;4.05;3.75;;;;;;;;;;5092287;28;20016;-81
2022/06/09 10:42:40;;;;;;;4.65;3.80;;;;;;;;;;5114234;28;20327;-80
2022/06/09 10:45:25;;;;;;;4.38;3.92;;;;;;;;;;5116011;28;20040;-79
2022/06/09 10:56:30;;;;;;;5.20;4.05;;;;;;;;;;5112230;28;20118;-80
2022/06/09 10:59:17;;;;;;;5.38;4.40;;;;;;;;;;5114057;28;20068;-80
2022/06/09 11:01:44;;;;;;;5.13;3.90;;;;;;;;;;5114915;28;20019;-83
2022/06/09 11:04:18;;;;;;;4.05;3.67;;;;;;;;;;5115657;28;20026;-79
2022/06/09 11:07:08;;;;;;;5.60;4.20;;;;;;;;;;5115069;28;20391;-79
2022/06/09 11:09:34;;;;;;;4.78;4.20;;;;;;;;;;5115117;28;20030;-77
2022/06/09 11:12:00;;;;;;;5.20;4.18;;;;;;;;;;5115389;28;20028;-79
2022/06/09 11:14:29;;;;;;;5.47;4.28;;;;;;;;;;5109229;28;20028;-82
2022/06/09 11:17:21;;;;;;;7.18;6.47;;;;;;;;;;5097915;28;20039;-81
2022/06/09 11:19:48;;;;;;;4.80;3.90;;;;;;;;;;5098097;28;20028;-83
2022/06/09 11:22:32;;;;;;;3.85;3.55;;;;;;;;;;5104508;28;20020;-83
2022/06/09 11:25:11;;;;;;;5.15;3.05;;;;;;;;;;5110904;28;20020;-80
2022/06/09 11:27:38;;;;;;;5.60;3.15;;;;;;;;;;5108028;28;20035;-80
2022/06/09 11:30:25;;;;;;;4.07;3.20;;;;;;;;;;5114666;28;20123;-84
2022/06/09 11:33:10;;;;;;;4.55;2.90;;;;;;;;;;5105450;28;20454;-83
2022/06/09 11:35:54;;;;;;;6.43;4.50;;;;;;;;;;5110734;28;20050;-89
2022/06/09 11:38:29;;;;;;;19.35;9.82;;;;;;;;;;5103878;28;20459;-81
2022/06/09 11:41:05;;;;;;;9.52;6.35;;;;;;;;;;5106464;28;20042;-81
2022/06/09 11:43:50;;;;;;;8.43;4.88;;;;;;;;;;5113415;28;20043;-86
2022/06/09 11:46:27;;;;;;;24.58;11.98;;;;;;;;;;5108063;28;20494;-85
2022/06/09 11:48:56;;;;;;;15.18;7.70;;;;;;;;;;5111638;28;20479;-86
2022/06/09 11:51:25;;;;;;;17.23;9.07;;;;;;;;;;5103362;28;20027;-80
2022/06/09 11:53:56;;;;;;;14.88;6.65;;;;;;;;;;5111696;28;20050;-78
2022/06/09 11:56:39;;;;;;;8.95;5.50;;;;;;;;;;5106407;28;20034;-82
2022/06/09 11:59:15;;;;;;;12.30;8.27;;;;;;;;;;5092081;28;20020;-84
2022/06/09 12:01:41;;;;;;;10.15;5.97;;;;;;;;;;5098412;28;20535;-85
2022/06/09 12:04:26;;;;;;;19.75;17.73;;;;;;;;;;5112269;27;20486;-81
2022/06/09 12:06:55;;;;;;;5.72;4.93;;;;;;;;;;5112111;28;20100;-81
2022/06/09 12:09:42;;;;;;;5.30;3.97;;;;;;;;;;5110984;28;20509;-81
2022/06/09 12:12:27;;;;;;;8.35;5.30;;;;;;;;;;5112553;28;20035;-80
2022/06/09 12:15:09;;;;;;;6.68;4.00;;;;;;;;;;5112869;27;20130;-83
2022/06/09 12:17:35;;;;;;;4.43;3.50;;;;;;;;;;5112302;28;20024;-82
2022/06/09 12:20:07;;;;;;;4.68;2.78;;;;;;;;;;5109228;28;20024;-85
2022/06/09 12:22:42;;;;;;;8.50;6.15;;;;;;;;;;5113054;28;20018;-83
2022/06/09 12:25:09;;;;;;;3.78;2.92;;;;;;;;;;5102940;28;20028;-82
2022/06/09 12:27:38;;;;;;;19.75;10.75;;;;;;;;;;5113586;28;20043;-81
2022/06/09 12:30:04;;;;;;;6.45;5.85;;;;;;;;;;5093991;28;20389;-82
2022/06/09 12:32:38;;;;;;;7.22;6.35;;;;;;;;;;5108339;28;20027;-81
2022/06/09 12:35:14;;;;;;;9.18;5.78;;;;;;;;;;5111880;28;20474;-82
2022/06/09 12:37:47;;;;;;;5.13;4.55;;;;;;;;;;5104254;28;20355;-84
2022/06/09 12:40:17;;;;;;;6.03;5.27;;;;;;;;;;5110351;28;20020;-83
2022/06/09 12:42:43;;;;;;;10.20;9.02;;;;;;;;;;5110977;28;20095;-81
2022/06/09 12:45:18;;;;;;;15.07;13.48;;;;;;;;;;5110796;28;20047;-82
2022/06/09 12:48:05;;;;;;;8.20;7.00;;;;;;;;;;5111935;28;20016;-85
2022/06/09 12:50:31;;;;;;;6.95;4.45;;;;;;;;;;5107617;28;20034;-82
2022/06/09 12:52:58;;;;;;;3.83;2.97;;;;;;;;;;5110846;28;20027;-82
2022/06/09 12:55:29;;;;;;;3.70;2.58;;;;;;;;;;5111123;28;20032;-87
2022/06/09 12:58:07;;;;;;;13.95;12.52;;;;;;;;;;5111595;28;20024;-82
2022/06/09 13:00:35;;;;;;;3.78;3.42;;;;;;;;;;5102730;28;20024;-79
2022/06/09 13:03:03;;;;;;;9.10;7.68;;;;;;;;;;5100055;28;20047;-82
2022/06/09 13:05:34;;;;;;;4.90;3.72;;;;;;;;;;5093334;28;20024;-84
2022/06/09 13:08:03;;;;;;;3.28;2.15;;;;;;;;;;5095291;28;20039;-84
2022/06/09 13:10:38;;;;;;;2.63;2.13;;;;;;;;;;5102202;28;20020;-81
2022/06/09 13:13:07;;;;;;;3.33;2.08;;;;;;;;;;5111166;28;20038;-82
2022/06/09 13:16:30;;;;;;;4.88;2.33;;;;;;;;;;5108136;28;20016;-82
2022/06/09 13:19:07;;;;;;;4.53;2.83;;;;;;;;;;5110135;28;20027;-84
2022/06/09 13:21:39;;;;;;;6.00;3.10;;;;;;;;;;5110363;28;20019;-82
2022/06/09 13:24:12;;;;;;;3.55;2.88;;;;;;;;;;5109739;28;20484;-82
2022/06/09 13:26:42;;;;;;;3.72;2.38;;;;;;;;;;5112545;28;20016;-80
2022/06/09 13:29:11;;;;;;;5.97;2.95;;;;;;;;;;5106141;28;20070;-82
2022/06/09 13:31:43;;;;;;;4.22;2.85;;;;;;;;;;5111852;28;20031;-81
2022/06/09 13:34:15;;;;;;;3.20;2.50;;;;;;;;;;5110485;28;20042;-80
2022/06/09 13:36:59;;;;;;;4.60;3.00;;;;;;;;;;5110202;28;20046;-81
2022/06/09 13:39:29;;;;;;;4.07;2.42;;;;;;;;;;5112202;28;20032;-82
2022/06/09 13:42:18;;;;;;;4.07;3.00;;;;;;;;;;5106953;28;20038;-79
2022/06/09 13:45:03;;;;;;;4.13;2.67;;;;;;;;;;5110571;28;20048;-81
2022/06/09 13:47:36;;;;;;;3.63;3.15;;;;;;;;;;5107309;28;20398;-81
2022/06/09 13:50:06;;;;;;;5.60;4.93;;;;;;;;;;5107591;28;20375;-81
2022/06/09 13:52:38;;;;;;;4.05;3.03;;;;;;;;;;5111082;28;20055;-80
2022/06/09 13:55:15;;;;;;;6.45;4.07;;;;;;;;;;5111839;28;20072;-80
2022/06/09 13:57:58;;;;;;;12.25;11.02;;;;;;;;;;5109950;28;20454;-79
2022/06/09 14:00:27;;;;;;;7.72;5.20;;;;;;;;;;5110147;28;20024;-79
2022/06/09 14:02:53;;;;;;;12.35;10.20;;;;;;;;;;5111535;28;20102;-79
2022/06/09 14:05:20;;;;;;;4.43;4.03;;;;;;;;;;5109170;28;20025;-78
2022/06/09 14:07:46;;;;;;;8.13;5.97;;;;;;;;;;5112022;28;20036;-82
2022/06/09 14:11:00;;;;;;;;;;;;;;;;;;;;;
2022/06/09 14:13:26;;;;;;;7.43;6.72;;;;;;;;;;5087208;28;20036;-81
2022/06/09 14:15:53;;;;;;;5.45;4.95;;;;;;;;;;5090787;28;20053;-79
2022/06/09 14:18:24;;;;;;;4.70;3.30;;;;;;;;;;5113680;28;20031;-80
2022/06/09 14:20:51;;;;;;;4.70;3.28;;;;;;;;;;5116246;28;20020;-80
2022/06/09 14:23:21;;;;;;;9.10;2.92;;;;;;;;;;5114424;28;20019;-82
2022/06/09 14:26:23;;;;;;;4.60;2.40;;;;;;;;;;5115935;28;20458;-84
2022/06/09 14:29:30;;;;;;;4.82;3.03;;;;;;;;;;5088876;28;20036;-82
2022/06/09 14:32:25;;;;;;;2.70;2.22;;;;;;;;;;5083128;28;20024;-82
2022/06/09 14:34:54;;;;;;;2.90;2.70;;;;;;;;;;5029176;28;20456;-83
2022/06/09 14:40:48;;;;;;;3.33;2.65;;;;;;;;;;5072892;28;20037;-83
2022/06/09 14:43:14;;;;;;;4.82;3.13;;;;;;;;;;5046577;28;20045;-73
2022/06/09 14:49:17;;;;;;;22.08;18.45;;;;;;;;;;5059888;28;20398;-83
2022/06/09 14:58:52;;;;;;;5.20;2.80;;;;;;;;;;5023026;28;20033;-82
2022/06/09 15:01:41;;;;;;;5.07;2.90;;;;;;;;;;4971432;28;20160;-81
2022/06/09 15:04:10;;;;;;;4.50;4.10;;;;;;;;;;4986469;28;20037;-90
2022/06/09 15:07:24;;;;;;;;;;;;;;;;;;;;;
2022/06/09 15:10:21;;;;;;;;;;;;;;;;;;;;;
2022/06/09 15:13:17;;;;;;;6.40;4.40;;;;;;;;;;4970767;28;20035;-82
2022/06/09 15:15:43;;;;;;;4.97;4.32;;;;;;;;;;4980631;28;20043;-81
2022/06/09 15:18:14;;;;;;;5.18;3.88;;;;;;;;;;5034264;28;20038;-84
2022/06/09 15:20:41;;;;;;;4.90;4.45;;;;;;;;;;5069004;28;20029;-83
2022/06/09 15:23:08;;;;;;;5.93;4.25;;;;;;;;;;5128594;27;20093;-79
2022/06/09 15:25:38;;;;;;;6.28;4.70;;;;;;;;;;5121750;27;20482;-80
2022/06/09 15:28:06;;;;;;;14.00;5.32;;;;;;;;;;5120945;27;20818;-82
2022/06/09 15:30:34;;;;;;;6.70;3.97;;;;;;;;;;5115354;28;20482;-83
2022/06/09 15:33:04;;;;;;;5.30;3.22;;;;;;;;;;5121642;27;20082;-80
2022/06/09 15:35:31;;;;;;;3.78;2.95;;;;;;;;;;5129388;27;20023;-83
2022/06/09 15:37:57;;;;;;;8.20;4.10;;;;;;;;;;5127122;27;20015;-81
2022/06/09 15:40:34;;;;;;;10.00;6.47;;;;;;;;;;5127892;27;20478;-82
2022/06/09 15:43:02;;;;;;;8.90;5.20;;;;;;;;;;5110223;27;20031;-84
2022/06/09 15:45:28;;;;;;;12.80;5.95;;;;;;;;;;5129340;27;20073;-80
2022/06/09 15:47:54;;;;;;;15.48;7.55;;;;;;;;;;5125737;27;20089;-83
2022/06/09 15:50:22;;;;;;;10.93;6.45;;;;;;;;;;5111654;27;20478;-82
2022/06/09 15:52:49;;;;;;;10.00;4.57;;;;;;;;;;5131364;27;20031;-81
2022/06/09 15:55:17;;;;;;;8.38;5.40;;;;;;;;;;5116640;27;20445;-84
2022/06/09 15:57:43;;;;;;;9.40;4.93;;;;;;;;;;5147285;27;20530;-81
2022/06/09 16:00:14;;;;;;;9.40;4.63;;;;;;;;;;5155217;27;20031;-82
2022/06/09 16:02:40;;;;;;;7.47;4.32;;;;;;;;;;5136499;27;20063;-82
2022/06/09 16:05:07;;;;;;;9.05;4.70;;;;;;;;;;5155209;27;20022;-83
2022/06/09 16:07:36;;;;;;;9.07;4.85;;;;;;;;;;5136383;27;20023;-81
2022/06/09 16:10:05;;;;;;;7.20;5.72;;;;;;;;;;5155885;27;20022;-81
2022/06/09 16:12:32;;;;;;;9.98;6.18;;;;;;;;;;5153266;27;20034;-82
2022/06/09 16:15:01;;;;;;;11.30;7.78;;;;;;;;;;5136202;27;20376;-83
2022/06/09 16:17:39;;;;;;;8.75;7.68;;;;;;;;;;5154579;27;20014;-85
2022/06/09 16:20:11;;;;;;;13.93;9.93;;;;;;;;;;5132639;27;20019;-83
2022/06/09 16:22:44;;;;;;;13.90;10.30;;;;;;;;;;5154214;27;20022;-83
2022/06/09 16:25:13;;;;;;;15.30;9.73;;;;;;;;;;5154501;27;20023;-76
2022/06/09 16:27:42;;;;;;;11.00;8.52;;;;;;;;;;5132021;27;20050;-81
2022/06/09 16:30:09;;;;;;;11.93;9.23;;;;;;;;;;5111149;28;20043;-81
2022/06/09 16:35:56;;;;;;;12.55;10.10;;;;;;;;;;5104701;28;20558;-85
2022/06/09 16:38:45;;;;;;;12.40;11.02;;;;;;;;;;5107852;28;20047;-85
2022/06/09 16:41:12;;;;;;;11.90;10.05;;;;;;;;;;5108299;28;20106;-87
2022/06/09 16:43:53;;;;;;;13.93;12.38;;;;;;;;;;5110353;28;20044;-82
2022/06/09 16:46:22;;;;;;;13.48;12.27;;;;;;;;;;5090838;28;20115;-81
2022/06/09 16:48:51;;;;;;;11.00;10.00;;;;;;;;;;5094214;28;20019;-81
2022/06/09 16:51:18;;;;;;;11.60;10.32;;;;;;;;;;5093486;28;20154;-82
2022/06/09 16:53:44;;;;;;;11.68;10.57;;;;;;;;;;5110253;28;20080;-80
2022/06/09 16:56:11;;;;;;;12.32;9.93;;;;;;;;;;5109991;28;20032;-81
2022/06/09 16:58:41;;;;;;;9.60;8.45;;;;;;;;;;5110150;28;20080;-82
2022/06/09 17:01:10;;;;;;;7.85;7.10;;;;;;;;;;5113886;27;20046;-83
2022/06/09 17:03:40;;;;;;;7.10;6.40;;;;;;;;;;5132442;27;20023;-84
2022/06/09 17:06:06;;;;;;;7.13;6.47;;;;;;;;;;5130148;27;20050;-79
2022/06/09 17:08:43;;;;;;;6.25;5.75;;;;;;;;;;5130840;27;20027;-84
2022/06/09 17:11:11;;;;;;;6.82;6.00;;;;;;;;;;5133328;27;20046;-83
2022/06/09 17:13:38;;;;;;;5.32;4.78;;;;;;;;;;5131732;27;20022;-79
2022/06/09 17:16:07;;;;;;;5.35;4.85;;;;;;;;;;5133414;27;20042;-84
2022/06/09 17:18:33;;;;;;;4.80;4.25;;;;;;;;;;5127666;27;20496;-82
2022/06/09 17:20:59;;;;;;;4.60;4.20;;;;;;;;;;5131209;27;20015;-81
2022/06/09 17:23:26;;;;;;;5.05;3.92;;;;;;;;;;5130604;27;20031;-81
2022/06/09 17:25:53;;;;;;;5.35;4.85;;;;;;;;;;5132139;27;20383;-80